sensor_id;sensor_type;location;lat;lon;timestamp;temperature;humidity
66102;HTU21D;52883;51.094;5.880;2023-12-20T00:01:00;7.31;118.99
66102;HTU21D;52883;51.094;5.880;2023-12-20T00:03:26;7.23;118.99
66102;HTU21D;52883;51.094;5.880;2023-12-20T00:05:52;7.17;118.99
66102;HTU21D;52883;51.094;5.880;2023-12-20T00:08:17;7.10;118.99
66102;HTU21D;52883;51.094;5.880;2023-12-20T00:10:43;6.98;118.99
66102;HTU21D;52883;51.094;5.880;2023-12-20T00:13:09;6.84;118.99
66102;HTU21D;52883;51.094;5.880;2023-12-20T00:15:35;6.69;118.99
66102;HTU21D;52883;51.094;5.880;2023-12-20T00:18:01;6.54;118.99
66102;HTU21D;52883;51.094;5.880;2023-12-20T00:20:28;6.40;118.99
66102;HTU21D;52883;51.094;5.880;2023-12-20T00:22:56;6.28;118.99
66102;HTU21D;52883;51.094;5.880;2023-12-20T00:25:23;6.17;118.99
66102;HTU21D;52883;51.094;5.880;2023-12-20T00:27:49;6.07;118.99
66102;HTU21D;52883;51.094;5.880;2023-12-20T00:30:15;5.99;118.99
66102;HTU21D;52883;51.094;5.880;2023-12-20T00:32:40;5.92;118.99
66102;HTU21D;52883;51.094;5.880;2023-12-20T00:35:17;5.86;118.99
66102;HTU21D;52883;51.094;5.880;2023-12-20T00:37:43;5.80;118.99
66102;HTU21D;52883;51.094;5.880;2023-12-20T00:40:09;5.72;118.99
66102;HTU21D;52883;51.094;5.880;2023-12-20T00:42:35;5.61;118.99
66102;HTU21D;52883;51.094;5.880;2023-12-20T00:45:04;5.52;118.99
66102;HTU21D;52883;51.094;5.880;2023-12-20T00:47:33;5.42;118.99
66102;HTU21D;52883;51.094;5.880;2023-12-20T00:49:59;5.36;118.99
66102;HTU21D;52883;51.094;5.880;2023-12-20T00:52:24;5.31;118.99
66102;HTU21D;52883;51.094;5.880;2023-12-20T00:54:51;5.26;118.99
66102;HTU21D;52883;51.094;5.880;2023-12-20T00:57:17;5.22;118.99
66102;HTU21D;52883;51.094;5.880;2023-12-20T00:59:43;5.18;118.99
66102;HTU21D;52883;51.094;5.880;2023-12-20T01:02:08;5.13;118.99
66102;HTU21D;52883;51.094;5.880;2023-12-20T01:04:35;5.07;118.99
66102;HTU21D;52883;51.094;5.880;2023-12-20T01:07:00;5.00;118.99
66102;HTU21D;52883;51.094;5.880;2023-12-20T01:09:26;4.91;118.99
66102;HTU21D;52883;51.094;5.880;2023-12-20T01:11:55;4.96;118.99
66102;HTU21D;52883;51.094;5.880;2023-12-20T01:14:20;5.06;118.99
66102;HTU21D;52883;51.094;5.880;2023-12-20T01:16:46;5.17;118.99
66102;HTU21D;52883;51.094;5.880;2023-12-20T01:19:13;5.26;118.99
66102;HTU21D;52883;51.094;5.880;2023-12-20T01:21:40;5.20;118.99
66102;HTU21D;52883;51.094;5.880;2023-12-20T01:24:05;5.09;118.99
66102;HTU21D;52883;51.094;5.880;2023-12-20T01:26:31;4.96;118.99
66102;HTU21D;52883;51.094;5.880;2023-12-20T01:28:57;4.87;118.99
66102;HTU21D;52883;51.094;5.880;2023-12-20T01:31:22;4.80;118.99
66102;HTU21D;52883;51.094;5.880;2023-12-20T01:33:48;4.76;118.99
66102;HTU21D;52883;51.094;5.880;2023-12-20T01:36:13;4.76;118.99
66102;HTU21D;52883;51.094;5.880;2023-12-20T01:38:39;4.80;118.99
66102;HTU21D;52883;51.094;5.880;2023-12-20T01:41:05;4.91;118.99
66102;HTU21D;52883;51.094;5.880;2023-12-20T01:43:31;4.92;118.99
66102;HTU21D;52883;51.094;5.880;2023-12-20T01:45:57;4.88;118.99
66102;HTU21D;52883;51.094;5.880;2023-12-20T01:48:25;4.78;118.99
66102;HTU21D;52883;51.094;5.880;2023-12-20T01:50:51;4.67;118.99
66102;HTU21D;52883;51.094;5.880;2023-12-20T01:53:20;4.58;118.99
66102;HTU21D;52883;51.094;5.880;2023-12-20T01:55:50;4.50;118.99
66102;HTU21D;52883;51.094;5.880;2023-12-20T01:58:17;4.43;118.99
66102;HTU21D;52883;51.094;5.880;2023-12-20T02:00:43;4.36;118.99
66102;HTU21D;52883;51.094;5.880;2023-12-20T02:03:08;4.29;118.99
66102;HTU21D;52883;51.094;5.880;2023-12-20T02:05:35;4.24;118.99
66102;HTU21D;52883;51.094;5.880;2023-12-20T02:08:01;4.17;118.99
66102;HTU21D;52883;51.094;5.880;2023-12-20T02:10:27;4.07;118.99
66102;HTU21D;52883;51.094;5.880;2023-12-20T02:12:54;4.05;118.99
66102;HTU21D;52883;51.094;5.880;2023-12-20T02:15:20;4.15;118.99
66102;HTU21D;52883;51.094;5.880;2023-12-20T02:17:47;4.19;118.99
66102;HTU21D;52883;51.094;5.880;2023-12-20T02:20:14;4.14;118.99
66102;HTU21D;52883;51.094;5.880;2023-12-20T02:22:39;4.09;118.99
66102;HTU21D;52883;51.094;5.880;2023-12-20T02:25:05;4.06;118.99
66102;HTU21D;52883;51.094;5.880;2023-12-20T02:27:31;4.14;118.99
66102;HTU21D;52883;51.094;5.880;2023-12-20T02:29:57;4.18;118.99
66102;HTU21D;52883;51.094;5.880;2023-12-20T02:32:24;4.23;118.99
66102;HTU21D;52883;51.094;5.880;2023-12-20T02:34:54;4.24;118.99
66102;HTU21D;52883;51.094;5.880;2023-12-20T02:37:19;4.26;118.99
66102;HTU21D;52883;51.094;5.880;2023-12-20T02:39:45;4.31;118.99
66102;HTU21D;52883;51.094;5.880;2023-12-20T02:42:11;4.39;118.99
66102;HTU21D;52883;51.094;5.880;2023-12-20T02:44:36;4.49;118.99
66102;HTU21D;52883;51.094;5.880;2023-12-20T02:47:02;4.59;118.99
66102;HTU21D;52883;51.094;5.880;2023-12-20T02:49:28;4.71;118.99
66102;HTU21D;52883;51.094;5.880;2023-12-20T02:51:53;4.74;118.99
66102;HTU21D;52883;51.094;5.880;2023-12-20T02:54:19;4.74;118.99
66102;HTU21D;52883;51.094;5.880;2023-12-20T02:56:45;4.72;118.99
66102;HTU21D;52883;51.094;5.880;2023-12-20T02:59:10;4.77;118.99
66102;HTU21D;52883;51.094;5.880;2023-12-20T03:01:45;4.87;118.99
66102;HTU21D;52883;51.094;5.880;2023-12-20T03:04:11;4.90;118.99
66102;HTU21D;52883;51.094;5.880;2023-12-20T03:06:37;4.87;118.99
66102;HTU21D;52883;51.094;5.880;2023-12-20T03:09:02;4.74;118.99
66102;HTU21D;52883;51.094;5.880;2023-12-20T03:11:28;4.58;118.99
66102;HTU21D;52883;51.094;5.880;2023-12-20T03:13:55;4.39;118.99
66102;HTU21D;52883;51.094;5.880;2023-12-20T03:16:20;4.32;118.99
66102;HTU21D;52883;51.094;5.880;2023-12-20T03:18:46;4.27;118.99
66102;HTU21D;52883;51.094;5.880;2023-12-20T03:21:11;4.34;118.99
66102;HTU21D;52883;51.094;5.880;2023-12-20T03:23:37;4.43;118.99
66102;HTU21D;52883;51.094;5.880;2023-12-20T03:26:03;4.44;118.99
66102;HTU21D;52883;51.094;5.880;2023-12-20T03:28:29;4.47;118.99
66102;HTU21D;52883;51.094;5.880;2023-12-20T03:30:55;4.48;118.99
66102;HTU21D;52883;51.094;5.880;2023-12-20T03:33:20;4.46;118.99
66102;HTU21D;52883;51.094;5.880;2023-12-20T03:35:46;4.46;118.99
66102;HTU21D;52883;51.094;5.880;2023-12-20T03:38:12;4.44;118.99
66102;HTU21D;52883;51.094;5.880;2023-12-20T03:40:37;4.52;118.99
66102;HTU21D;52883;51.094;5.880;2023-12-20T03:43:03;4.61;118.99
66102;HTU21D;52883;51.094;5.880;2023-12-20T03:45:29;4.72;118.99
66102;HTU21D;52883;51.094;5.880;2023-12-20T03:47:54;4.76;118.99
66102;HTU21D;52883;51.094;5.880;2023-12-20T03:50:25;4.67;118.99
66102;HTU21D;52883;51.094;5.880;2023-12-20T03:52:50;4.59;118.99
66102;HTU21D;52883;51.094;5.880;2023-12-20T03:55:16;4.53;118.99
66102;HTU21D;52883;51.094;5.880;2023-12-20T03:57:42;4.49;118.99
66102;HTU21D;52883;51.094;5.880;2023-12-20T04:00:08;4.44;118.99
66102;HTU21D;52883;51.094;5.880;2023-12-20T04:02:41;4.35;118.99
66102;HTU21D;52883;51.094;5.880;2023-12-20T04:05:08;4.28;118.99
66102;HTU21D;52883;51.094;5.880;2023-12-20T04:07:34;4.29;118.99
66102;HTU21D;52883;51.094;5.880;2023-12-20T04:10:00;4.30;118.99
66102;HTU21D;52883;51.094;5.880;2023-12-20T04:12:27;4.36;118.99
66102;HTU21D;52883;51.094;5.880;2023-12-20T04:14:53;4.43;118.99
66102;HTU21D;52883;51.094;5.880;2023-12-20T04:17:19;4.47;118.99
66102;HTU21D;52883;51.094;5.880;2023-12-20T04:19:45;4.48;118.99
66102;HTU21D;52883;51.094;5.880;2023-12-20T04:22:10;4.56;118.99
66102;HTU21D;52883;51.094;5.880;2023-12-20T04:24:36;4.63;118.99
66102;HTU21D;52883;51.094;5.880;2023-12-20T04:27:02;4.72;118.99
66102;HTU21D;52883;51.094;5.880;2023-12-20T04:29:27;4.81;118.99
66102;HTU21D;52883;51.094;5.880;2023-12-20T04:31:53;4.89;118.99
66102;HTU21D;52883;51.094;5.880;2023-12-20T04:34:19;4.93;118.99
66102;HTU21D;52883;51.094;5.880;2023-12-20T04:36:45;4.96;118.99
66102;HTU21D;52883;51.094;5.880;2023-12-20T04:39:12;4.97;118.99
66102;HTU21D;52883;51.094;5.880;2023-12-20T04:41:38;5.00;118.99
66102;HTU21D;52883;51.094;5.880;2023-12-20T04:44:03;5.01;118.99
66102;HTU21D;52883;51.094;5.880;2023-12-20T04:46:29;5.03;118.99
66102;HTU21D;52883;51.094;5.880;2023-12-20T04:48:54;5.06;118.99
66102;HTU21D;52883;51.094;5.880;2023-12-20T04:51:20;5.06;118.99
66102;HTU21D;52883;51.094;5.880;2023-12-20T04:53:46;5.07;118.99
66102;HTU21D;52883;51.094;5.880;2023-12-20T04:56:12;5.07;118.99
66102;HTU21D;52883;51.094;5.880;2023-12-20T04:58:37;5.09;118.99
66102;HTU21D;52883;51.094;5.880;2023-12-20T05:01:05;5.10;118.99
66102;HTU21D;52883;51.094;5.880;2023-12-20T05:03:31;5.11;118.99
66102;HTU21D;52883;51.094;5.880;2023-12-20T05:05:57;5.15;118.99
66102;HTU21D;52883;51.094;5.880;2023-12-20T05:08:22;5.17;118.99
66102;HTU21D;52883;51.094;5.880;2023-12-20T05:10:48;5.22;118.99
66102;HTU21D;52883;51.094;5.880;2023-12-20T05:13:14;5.25;118.99
66102;HTU21D;52883;51.094;5.880;2023-12-20T05:15:40;5.26;118.99
66102;HTU21D;52883;51.094;5.880;2023-12-20T05:18:05;5.28;118.99
66102;HTU21D;52883;51.094;5.880;2023-12-20T05:20:31;5.27;118.99
66102;HTU21D;52883;51.094;5.880;2023-12-20T05:22:56;5.25;118.99
66102;HTU21D;52883;51.094;5.880;2023-12-20T05:25:22;5.25;118.99
66102;HTU21D;52883;51.094;5.880;2023-12-20T05:27:48;5.28;118.99
66102;HTU21D;52883;51.094;5.880;2023-12-20T05:30:13;5.30;118.99
66102;HTU21D;52883;51.094;5.880;2023-12-20T05:32:39;5.33;118.99
66102;HTU21D;52883;51.094;5.880;2023-12-20T05:35:05;5.33;118.99
66102;HTU21D;52883;51.094;5.880;2023-12-20T05:37:30;5.32;118.99
66102;HTU21D;52883;51.094;5.880;2023-12-20T05:39:56;5.27;118.99
66102;HTU21D;52883;51.094;5.880;2023-12-20T05:42:21;5.26;118.99
66102;HTU21D;52883;51.094;5.880;2023-12-20T05:44:47;5.22;118.99
66102;HTU21D;52883;51.094;5.880;2023-12-20T05:47:14;5.25;118.99
66102;HTU21D;52883;51.094;5.880;2023-12-20T05:49:40;5.27;118.99
66102;HTU21D;52883;51.094;5.880;2023-12-20T05:52:05;5.30;118.99
66102;HTU21D;52883;51.094;5.880;2023-12-20T05:54:31;5.36;118.99
66102;HTU21D;52883;51.094;5.880;2023-12-20T05:56:57;5.39;118.99
66102;HTU21D;52883;51.094;5.880;2023-12-20T05:59:22;5.38;118.99
66102;HTU21D;52883;51.094;5.880;2023-12-20T06:01:48;5.35;118.99
66102;HTU21D;52883;51.094;5.880;2023-12-20T06:04:13;5.35;118.99
66102;HTU21D;52883;51.094;5.880;2023-12-20T06:06:42;5.37;118.99
66102;HTU21D;52883;51.094;5.880;2023-12-20T06:09:08;5.42;118.99
66102;HTU21D;52883;51.094;5.880;2023-12-20T06:11:34;5.43;118.99
66102;HTU21D;52883;51.094;5.880;2023-12-20T06:13:59;5.42;118.99
66102;HTU21D;52883;51.094;5.880;2023-12-20T06:16:25;5.41;118.99
66102;HTU21D;52883;51.094;5.880;2023-12-20T06:18:50;5.35;118.99
66102;HTU21D;52883;51.094;5.880;2023-12-20T06:21:16;5.26;118.99
66102;HTU21D;52883;51.094;5.880;2023-12-20T06:23:41;5.13;118.99
66102;HTU21D;52883;51.094;5.880;2023-12-20T06:26:07;5.04;118.99
66102;HTU21D;52883;51.094;5.880;2023-12-20T06:28:33;4.92;118.99
66102;HTU21D;52883;51.094;5.880;2023-12-20T06:30:58;4.79;118.99
66102;HTU21D;52883;51.094;5.880;2023-12-20T06:33:26;4.63;118.99
66102;HTU21D;52883;51.094;5.880;2023-12-20T06:35:51;4.50;118.99
66102;HTU21D;52883;51.094;5.880;2023-12-20T06:38:18;4.38;118.99
66102;HTU21D;52883;51.094;5.880;2023-12-20T06:40:45;4.33;118.99
66102;HTU21D;52883;51.094;5.880;2023-12-20T06:43:12;4.31;118.99
66102;HTU21D;52883;51.094;5.880;2023-12-20T06:45:37;4.27;118.99
66102;HTU21D;52883;51.094;5.880;2023-12-20T06:48:03;4.22;118.99
66102;HTU21D;52883;51.094;5.880;2023-12-20T06:50:29;4.24;118.99
66102;HTU21D;52883;51.094;5.880;2023-12-20T06:52:54;4.24;118.99
66102;HTU21D;52883;51.094;5.880;2023-12-20T06:55:20;4.21;118.99
66102;HTU21D;52883;51.094;5.880;2023-12-20T06:57:45;4.17;118.99
66102;HTU21D;52883;51.094;5.880;2023-12-20T07:00:12;4.17;118.99
66102;HTU21D;52883;51.094;5.880;2023-12-20T07:02:38;4.14;118.99
66102;HTU21D;52883;51.094;5.880;2023-12-20T07:05:03;4.12;118.99
66102;HTU21D;52883;51.094;5.880;2023-12-20T07:07:30;4.07;118.99
66102;HTU21D;52883;51.094;5.880;2023-12-20T07:09:55;4.06;118.99
66102;HTU21D;52883;51.094;5.880;2023-12-20T07:12:21;4.04;118.99
66102;HTU21D;52883;51.094;5.880;2023-12-20T07:14:46;4.02;118.99
66102;HTU21D;52883;51.094;5.880;2023-12-20T07:17:12;3.99;118.99
66102;HTU21D;52883;51.094;5.880;2023-12-20T07:19:40;3.95;118.99
66102;HTU21D;52883;51.094;5.880;2023-12-20T07:22:06;3.97;118.99
66102;HTU21D;52883;51.094;5.880;2023-12-20T07:24:32;3.97;118.99
66102;HTU21D;52883;51.094;5.880;2023-12-20T07:27:00;3.93;118.99
66102;HTU21D;52883;51.094;5.880;2023-12-20T07:29:26;3.89;118.99
66102;HTU21D;52883;51.094;5.880;2023-12-20T07:31:52;3.86;118.99
66102;HTU21D;52883;51.094;5.880;2023-12-20T07:34:20;3.82;118.99
66102;HTU21D;52883;51.094;5.880;2023-12-20T07:36:46;3.75;118.99
66102;HTU21D;52883;51.094;5.880;2023-12-20T07:39:11;3.75;118.99
66102;HTU21D;52883;51.094;5.880;2023-12-20T07:41:37;3.78;118.99
66102;HTU21D;52883;51.094;5.880;2023-12-20T07:44:04;3.79;118.99
66102;HTU21D;52883;51.094;5.880;2023-12-20T07:46:30;3.79;118.99
66102;HTU21D;52883;51.094;5.880;2023-12-20T07:48:55;3.78;118.99
66102;HTU21D;52883;51.094;5.880;2023-12-20T07:51:21;3.80;118.99
66102;HTU21D;52883;51.094;5.880;2023-12-20T07:53:46;3.83;118.99
66102;HTU21D;52883;51.094;5.880;2023-12-20T07:56:16;3.85;118.99
66102;HTU21D;52883;51.094;5.880;2023-12-20T07:58:41;3.86;118.99
66102;HTU21D;52883;51.094;5.880;2023-12-20T08:01:07;3.85;118.99
66102;HTU21D;52883;51.094;5.880;2023-12-20T08:03:33;3.86;118.99
66102;HTU21D;52883;51.094;5.880;2023-12-20T08:05:58;3.89;118.99
66102;HTU21D;52883;51.094;5.880;2023-12-20T08:08:25;3.92;118.99
66102;HTU21D;52883;51.094;5.880;2023-12-20T08:10:50;3.94;118.99
66102;HTU21D;52883;51.094;5.880;2023-12-20T08:13:16;4.00;118.99
66102;HTU21D;52883;51.094;5.880;2023-12-20T08:15:42;4.03;118.99
66102;HTU21D;52883;51.094;5.880;2023-12-20T08:18:07;4.08;118.99
66102;HTU21D;52883;51.094;5.880;2023-12-20T08:20:33;4.14;118.99
66102;HTU21D;52883;51.094;5.880;2023-12-20T08:22:58;4.19;118.99
66102;HTU21D;52883;51.094;5.880;2023-12-20T08:25:24;4.28;118.99
66102;HTU21D;52883;51.094;5.880;2023-12-20T08:27:49;4.38;118.99
66102;HTU21D;52883;51.094;5.880;2023-12-20T08:30:15;4.61;118.99
66102;HTU21D;52883;51.094;5.880;2023-12-20T08:32:46;4.84;118.99
66102;HTU21D;52883;51.094;5.880;2023-12-20T08:35:12;5.02;118.99
66102;HTU21D;52883;51.094;5.880;2023-12-20T08:37:37;5.16;118.99
66102;HTU21D;52883;51.094;5.880;2023-12-20T08:40:03;5.25;118.99
66102;HTU21D;52883;51.094;5.880;2023-12-20T08:42:29;5.34;118.99
66102;HTU21D;52883;51.094;5.880;2023-12-20T08:44:57;5.41;118.99
66102;HTU21D;52883;51.094;5.880;2023-12-20T08:47:24;5.47;118.99
66102;HTU21D;52883;51.094;5.880;2023-12-20T08:49:50;5.52;118.99
66102;HTU21D;52883;51.094;5.880;2023-12-20T08:52:15;5.51;118.99
66102;HTU21D;52883;51.094;5.880;2023-12-20T08:54:41;5.53;118.99
66102;HTU21D;52883;51.094;5.880;2023-12-20T08:57:06;5.60;118.99
66102;HTU21D;52883;51.094;5.880;2023-12-20T08:59:32;5.68;118.99
66102;HTU21D;52883;51.094;5.880;2023-12-20T09:01:58;5.87;118.99
66102;HTU21D;52883;51.094;5.880;2023-12-20T09:04:24;5.87;118.99
66102;HTU21D;52883;51.094;5.880;2023-12-20T09:06:50;5.77;118.99
66102;HTU21D;52883;51.094;5.880;2023-12-20T09:09:15;5.64;118.99
66102;HTU21D;52883;51.094;5.880;2023-12-20T09:11:41;5.63;118.99
66102;HTU21D;52883;51.094;5.880;2023-12-20T09:14:08;5.63;118.99
66102;HTU21D;52883;51.094;5.880;2023-12-20T09:16:34;5.67;118.99
66102;HTU21D;52883;51.094;5.880;2023-12-20T09:18:59;5.69;118.99
66102;HTU21D;52883;51.094;5.880;2023-12-20T09:21:25;5.80;118.99
66102;HTU21D;52883;51.094;5.880;2023-12-20T09:23:51;5.97;118.99
66102;HTU21D;52883;51.094;5.880;2023-12-20T09:26:16;6.09;118.99
66102;HTU21D;52883;51.094;5.880;2023-12-20T09:28:42;6.12;118.99
66102;HTU21D;52883;51.094;5.880;2023-12-20T09:31:07;6.14;118.99
66102;HTU21D;52883;51.094;5.880;2023-12-20T09:33:33;6.19;118.99
66102;HTU21D;52883;51.094;5.880;2023-12-20T09:35:59;6.31;118.99
66102;HTU21D;52883;51.094;5.880;2023-12-20T09:38:25;6.48;118.99
66102;HTU21D;52883;51.094;5.880;2023-12-20T09:40:51;6.79;118.99
66102;HTU21D;52883;51.094;5.880;2023-12-20T09:43:20;6.93;118.99
66102;HTU21D;52883;51.094;5.880;2023-12-20T09:45:47;6.97;118.99
66102;HTU21D;52883;51.094;5.880;2023-12-20T09:48:13;7.07;118.99
66102;HTU21D;52883;51.094;5.880;2023-12-20T09:50:42;7.12;118.99
66102;HTU21D;52883;51.094;5.880;2023-12-20T09:53:12;7.12;118.99
66102;HTU21D;52883;51.094;5.880;2023-12-20T09:55:41;7.02;118.99
66102;HTU21D;52883;51.094;5.880;2023-12-20T09:58:07;6.96;118.99
66102;HTU21D;52883;51.094;5.880;2023-12-20T10:00:37;6.94;118.99
66102;HTU21D;52883;51.094;5.880;2023-12-20T10:03:05;6.88;118.99
66102;HTU21D;52883;51.094;5.880;2023-12-20T10:05:33;6.85;118.99
66102;HTU21D;52883;51.094;5.880;2023-12-20T10:08:00;6.86;118.99
66102;HTU21D;52883;51.094;5.880;2023-12-20T10:10:26;7.03;118.99
66102;HTU21D;52883;51.094;5.880;2023-12-20T10:13:10;7.08;118.99
66102;HTU21D;52883;51.094;5.880;2023-12-20T10:15:36;6.95;118.99
66102;HTU21D;52883;51.094;5.880;2023-12-20T10:18:03;6.90;118.99
66102;HTU21D;52883;51.094;5.880;2023-12-20T10:20:30;7.07;118.99
66102;HTU21D;52883;51.094;5.880;2023-12-20T10:23:00;7.30;118.99
66102;HTU21D;52883;51.094;5.880;2023-12-20T10:25:26;7.41;118.99
66102;HTU21D;52883;51.094;5.880;2023-12-20T10:28:14;7.43;118.99
66102;HTU21D;52883;51.094;5.880;2023-12-20T10:30:41;7.45;118.99
66102;HTU21D;52883;51.094;5.880;2023-12-20T10:33:07;7.41;118.99
66102;HTU21D;52883;51.094;5.880;2023-12-20T10:35:34;7.37;118.99
66102;HTU21D;52883;51.094;5.880;2023-12-20T10:38:03;7.39;118.99
66102;HTU21D;52883;51.094;5.880;2023-12-20T10:40:30;7.45;118.99
66102;HTU21D;52883;51.094;5.880;2023-12-20T10:42:56;7.60;118.99
66102;HTU21D;52883;51.094;5.880;2023-12-20T10:45:23;7.76;118.99
66102;HTU21D;52883;51.094;5.880;2023-12-20T10:47:50;7.86;118.99
66102;HTU21D;52883;51.094;5.880;2023-12-20T10:50:18;8.05;118.99
66102;HTU21D;52883;51.094;5.880;2023-12-20T10:52:45;8.19;118.99
66102;HTU21D;52883;51.094;5.880;2023-12-20T10:55:12;8.30;118.99
66102;HTU21D;52883;51.094;5.880;2023-12-20T10:57:38;8.38;118.99
66102;HTU21D;52883;51.094;5.880;2023-12-20T11:00:08;8.41;118.99
66102;HTU21D;52883;51.094;5.880;2023-12-20T11:02:40;8.44;118.99
66102;HTU21D;52883;51.094;5.880;2023-12-20T11:08:13;8.28;118.99
66102;HTU21D;52883;51.094;5.880;2023-12-20T11:11:37;8.26;118.99
66102;HTU21D;52883;51.094;5.880;2023-12-20T11:13:55;8.33;118.99
66102;HTU21D;52883;51.094;5.880;2023-12-20T11:16:22;8.36;118.99
66102;HTU21D;52883;51.094;5.880;2023-12-20T11:18:50;8.35;118.99
66102;HTU21D;52883;51.094;5.880;2023-12-20T11:21:16;8.31;118.99
66102;HTU21D;52883;51.094;5.880;2023-12-20T11:23:42;8.22;118.99
66102;HTU21D;52883;51.094;5.880;2023-12-20T11:26:08;8.14;118.99
66102;HTU21D;52883;51.094;5.880;2023-12-20T11:28:34;8.02;118.99
66102;HTU21D;52883;51.094;5.880;2023-12-20T11:31:01;7.94;118.99
66102;HTU21D;52883;51.094;5.880;2023-12-20T11:33:32;7.86;118.99
66102;HTU21D;52883;51.094;5.880;2023-12-20T11:36:00;7.78;118.99
66102;HTU21D;52883;51.094;5.880;2023-12-20T11:38:26;7.78;118.99
66102;HTU21D;52883;51.094;5.880;2023-12-20T11:40:54;7.75;118.99
66102;HTU21D;52883;51.094;5.880;2023-12-20T11:43:31;7.76;118.99
66102;HTU21D;52883;51.094;5.880;2023-12-20T11:46:05;7.79;118.99
66102;HTU21D;52883;51.094;5.880;2023-12-20T11:48:32;7.84;118.99
66102;HTU21D;52883;51.094;5.880;2023-12-20T11:50:58;7.86;118.99
66102;HTU21D;52883;51.094;5.880;2023-12-20T11:53:23;7.83;118.99
66102;HTU21D;52883;51.094;5.880;2023-12-20T11:55:49;7.76;118.99
66102;HTU21D;52883;51.094;5.880;2023-12-20T11:58:15;7.73;118.99
66102;HTU21D;52883;51.094;5.880;2023-12-20T12:00:42;7.74;118.99
66102;HTU21D;52883;51.094;5.880;2023-12-20T12:03:14;7.75;118.99
66102;HTU21D;52883;51.094;5.880;2023-12-20T12:05:40;7.74;118.99
66102;HTU21D;52883;51.094;5.880;2023-12-20T12:08:06;7.74;118.99
66102;HTU21D;52883;51.094;5.880;2023-12-20T12:10:33;7.77;118.99
66102;HTU21D;52883;51.094;5.880;2023-12-20T12:12:59;7.77;118.99
66102;HTU21D;52883;51.094;5.880;2023-12-20T12:15:26;7.77;118.99
66102;HTU21D;52883;51.094;5.880;2023-12-20T12:17:55;7.77;118.99
66102;HTU21D;52883;51.094;5.880;2023-12-20T12:20:22;7.76;118.99
66102;HTU21D;52883;51.094;5.880;2023-12-20T12:23:02;7.73;118.99
66102;HTU21D;52883;51.094;5.880;2023-12-20T12:25:30;7.74;118.99
66102;HTU21D;52883;51.094;5.880;2023-12-20T12:27:58;7.78;118.99
66102;HTU21D;52883;51.094;5.880;2023-12-20T12:30:24;7.81;118.99
66102;HTU21D;52883;51.094;5.880;2023-12-20T12:32:53;7.84;118.99
66102;HTU21D;52883;51.094;5.880;2023-12-20T12:35:19;7.89;118.99
66102;HTU21D;52883;51.094;5.880;2023-12-20T12:37:45;7.89;118.99
66102;HTU21D;52883;51.094;5.880;2023-12-20T12:40:16;7.91;118.99
66102;HTU21D;52883;51.094;5.880;2023-12-20T12:42:44;7.88;118.99
66102;HTU21D;52883;51.094;5.880;2023-12-20T12:45:10;7.84;118.99
66102;HTU21D;52883;51.094;5.880;2023-12-20T12:47:37;7.86;118.99
66102;HTU21D;52883;51.094;5.880;2023-12-20T12:50:04;7.98;118.99
66102;HTU21D;52883;51.094;5.880;2023-12-20T12:52:33;8.08;118.99
66102;HTU21D;52883;51.094;5.880;2023-12-20T12:54:59;8.09;118.99
66102;HTU21D;52883;51.094;5.880;2023-12-20T12:57:24;8.04;118.99
66102;HTU21D;52883;51.094;5.880;2023-12-20T12:59:50;7.96;118.99
66102;HTU21D;52883;51.094;5.880;2023-12-20T13:02:16;7.92;118.99
66102;HTU21D;52883;51.094;5.880;2023-12-20T13:04:42;7.98;118.99
66102;HTU21D;52883;51.094;5.880;2023-12-20T13:07:09;8.03;118.99
66102;HTU21D;52883;51.094;5.880;2023-12-20T13:09:38;8.03;118.99
66102;HTU21D;52883;51.094;5.880;2023-12-20T13:12:04;7.98;118.99
66102;HTU21D;52883;51.094;5.880;2023-12-20T13:14:33;7.93;118.99
66102;HTU21D;52883;51.094;5.880;2023-12-20T13:17:01;7.88;118.99
66102;HTU21D;52883;51.094;5.880;2023-12-20T13:19:27;7.83;118.99
66102;HTU21D;52883;51.094;5.880;2023-12-20T13:21:53;7.82;118.99
66102;HTU21D;52883;51.094;5.880;2023-12-20T13:24:18;7.85;118.99
66102;HTU21D;52883;51.094;5.880;2023-12-20T13:26:44;7.90;118.99
66102;HTU21D;52883;51.094;5.880;2023-12-20T13:29:10;7.94;118.99
66102;HTU21D;52883;51.094;5.880;2023-12-20T13:31:36;7.97;118.99
66102;HTU21D;52883;51.094;5.880;2023-12-20T13:34:02;8.04;118.99
66102;HTU21D;52883;51.094;5.880;2023-12-20T13:36:28;8.07;118.99
66102;HTU21D;52883;51.094;5.880;2023-12-20T13:38:54;8.13;118.99
66102;HTU21D;52883;51.094;5.880;2023-12-20T13:41:20;8.19;118.99
66102;HTU21D;52883;51.094;5.880;2023-12-20T13:43:45;8.22;118.99
66102;HTU21D;52883;51.094;5.880;2023-12-20T13:46:11;8.18;118.99
66102;HTU21D;52883;51.094;5.880;2023-12-20T13:48:36;8.15;118.99
66102;HTU21D;52883;51.094;5.880;2023-12-20T13:51:02;8.11;118.99
66102;HTU21D;52883;51.094;5.880;2023-12-20T13:53:28;8.04;118.99
66102;HTU21D;52883;51.094;5.880;2023-12-20T13:55:54;8.05;118.99
66102;HTU21D;52883;51.094;5.880;2023-12-20T13:58:19;8.01;118.99
66102;HTU21D;52883;51.094;5.880;2023-12-20T14:00:45;8.03;118.99
66102;HTU21D;52883;51.094;5.880;2023-12-20T14:03:11;8.04;118.99
66102;HTU21D;52883;51.094;5.880;2023-12-20T14:05:36;7.96;118.99
66102;HTU21D;52883;51.094;5.880;2023-12-20T14:08:03;7.92;118.99
66102;HTU21D;52883;51.094;5.880;2023-12-20T14:10:28;7.90;118.99
66102;HTU21D;52883;51.094;5.880;2023-12-20T14:12:54;7.87;118.99
66102;HTU21D;52883;51.094;5.880;2023-12-20T14:15:20;7.83;118.99
66102;HTU21D;52883;51.094;5.880;2023-12-20T14:17:46;7.79;118.99
66102;HTU21D;52883;51.094;5.880;2023-12-20T14:20:12;7.77;118.99
66102;HTU21D;52883;51.094;5.880;2023-12-20T14:22:38;7.78;118.99
66102;HTU21D;52883;51.094;5.880;2023-12-20T14:25:04;7.81;118.99
66102;HTU21D;52883;51.094;5.880;2023-12-20T14:27:32;7.77;118.99
66102;HTU21D;52883;51.094;5.880;2023-12-20T14:29:57;7.75;118.99
66102;HTU21D;52883;51.094;5.880;2023-12-20T14:32:23;7.71;118.99
66102;HTU21D;52883;51.094;5.880;2023-12-20T14:34:49;7.68;118.99
66102;HTU21D;52883;51.094;5.880;2023-12-20T14:37:15;7.63;118.99
66102;HTU21D;52883;51.094;5.880;2023-12-20T14:39:42;7.62;118.99
66102;HTU21D;52883;51.094;5.880;2023-12-20T14:42:08;7.58;118.99
66102;HTU21D;52883;51.094;5.880;2023-12-20T14:44:37;7.60;118.99
66102;HTU21D;52883;51.094;5.880;2023-12-20T14:47:03;7.61;118.99
66102;HTU21D;52883;51.094;5.880;2023-12-20T14:49:30;7.63;118.99
66102;HTU21D;52883;51.094;5.880;2023-12-20T14:51:56;7.64;118.99
66102;HTU21D;52883;51.094;5.880;2023-12-20T14:54:21;7.64;118.99
66102;HTU21D;52883;51.094;5.880;2023-12-20T14:56:47;7.62;118.99
66102;HTU21D;52883;51.094;5.880;2023-12-20T14:59:13;7.60;118.99
66102;HTU21D;52883;51.094;5.880;2023-12-20T15:01:39;7.59;118.99
66102;HTU21D;52883;51.094;5.880;2023-12-20T15:04:06;7.53;118.99
66102;HTU21D;52883;51.094;5.880;2023-12-20T15:06:32;7.53;118.99
66102;HTU21D;52883;51.094;5.880;2023-12-20T15:08:59;7.49;118.99
66102;HTU21D;52883;51.094;5.880;2023-12-20T15:11:26;7.47;118.99
66102;HTU21D;52883;51.094;5.880;2023-12-20T15:13:52;7.44;118.99